Siros, Greece
Current Conditions -  °F | °C
As of 12:50 PM on Monday 20 Oct 2014 (Local Time) from LGMK Reporting Station
Clear Clear  
Wind Chill: 64°   Ceiling: Unl
Heat Index: 64°   Visibility: 6mi
Dew Point: 46°   Wind: 29mph
Humidity: 52%   Direction: 20°NNE
Pressure: 30.09"   Gusts: 40mph
Location:  37.45°N, 24.93°E
Report Text: LGMK 200950Z 02025G35KT CAVOK 18/08 Q1019
Loading
Personal Weather Stations






























Interactive Weather Map
Tropical Storm Tracking
New forecast layout! Learn more

10-Day Weather Forecast

Advertisements
Track Severe Weather on mobile